createdAt,value
2018-11-12T00:00:25.044Z,58.12
2018-11-12T00:02:58.597Z,57.92
2018-11-12T00:05:28.250Z,58.04
2018-11-12T00:07:57.641Z,57.99
2018-11-12T00:10:26.974Z,58.69
2018-11-12T00:12:56.439Z,57.90
2018-11-12T00:15:25.728Z,58.70
2018-11-12T00:17:54.953Z,57.99
2018-11-12T00:20:24.376Z,57.93
2018-11-12T00:22:53.766Z,58.75
2018-11-12T00:25:23.050Z,57.88
2018-11-12T00:27:52.446Z,58.49
2018-11-12T00:30:21.646Z,58.20
2018-11-12T00:32:51.049Z,58.52
2018-11-12T00:35:20.599Z,58.31
2018-11-12T00:37:49.805Z,58.48
2018-11-12T00:40:19.137Z,58.58
2018-11-12T00:42:48.490Z,58.63
2018-11-12T00:45:17.756Z,58.02
2018-11-12T00:47:47.078Z,58.26
2018-11-12T00:50:16.749Z,59.05
2018-11-12T00:52:46.117Z,58.56
2018-11-12T00:55:16.264Z,57.91
2018-11-12T00:57:45.878Z,58.27
2018-11-12T01:00:18.470Z,58.60
2018-11-12T01:02:49.313Z,58.25
2018-11-12T01:05:19.492Z,58.71
2018-11-12T01:07:49.225Z,57.96
2018-11-12T01:10:19.466Z,58.53
2018-11-12T01:12:48.864Z,58.71
2018-11-12T01:15:19.457Z,58.63
2018-11-12T01:17:55.474Z,58.56
2018-11-12T01:20:24.965Z,58.75
2018-11-12T01:22:54.201Z,58.86
2018-11-12T01:25:23.498Z,58.79
2018-11-12T01:27:52.795Z,58.24
2018-11-12T01:30:22.073Z,57.96
2018-11-12T01:32:51.419Z,58.57
2018-11-12T01:35:20.757Z,58.76
2018-11-12T01:37:49.954Z,58.30
2018-11-12T01:40:19.289Z,58.17
2018-11-12T01:42:48.637Z,58.76
2018-11-12T01:45:19.025Z,58.25
2018-11-12T01:47:49.639Z,58.29
2018-11-12T01:50:19.627Z,58.90
2018-11-12T01:52:49.531Z,58.55
2018-11-12T01:55:19.629Z,58.77
2018-11-12T01:57:48.932Z,57.96
2018-11-12T02:00:19.432Z,58.23
2018-11-12T02:02:50.846Z,57.94
2018-11-12T02:05:20.398Z,58.57
2018-11-12T02:07:49.610Z,57.99
2018-11-12T02:10:19.467Z,58.72
2018-11-12T02:12:48.724Z,58.69
2018-11-12T02:15:19.344Z,58.59
2018-11-12T02:17:49.349Z,58.73
2018-11-12T02:20:19.881Z,58.43
2018-11-12T02:22:49.905Z,58.07
2018-11-12T02:25:19.552Z,58.61
2018-11-12T02:27:48.954Z,58.67
2018-11-12T02:30:24.025Z,58.03
2018-11-12T02:32:53.310Z,58.85
2018-11-12T02:35:22.614Z,58.23
2018-11-12T02:37:51.965Z,58.63
2018-11-12T02:40:21.250Z,58.26
2018-11-12T02:42:50.609Z,58.32
2018-11-12T02:45:19.881Z,58.02
2018-11-12T02:47:49.142Z,58.06
2018-11-12T02:50:18.656Z,58.33
2018-11-12T02:52:47.934Z,58.15
2018-11-12T02:55:17.297Z,58.24
2018-11-12T02:57:47.650Z,58.60
2018-11-12T03:00:19.894Z,58.59
2018-11-12T03:02:49.188Z,58.32
2018-11-12T03:05:18.516Z,58.64
2018-11-12T03:07:47.896Z,58.90
2018-11-12T03:10:22.269Z,58.84
2018-11-12T03:12:51.678Z,58.26
2018-11-12T03:15:21.715Z,58.84
2018-11-12T03:17:51.760Z,57.95
2018-11-12T03:20:22.387Z,58.88
2018-11-12T03:22:51.717Z,58.10
2018-11-12T03:25:21.885Z,58.04
2018-11-12T03:27:51.543Z,58.21
2018-11-12T03:30:21.951Z,58.02
2018-11-12T03:32:52.062Z,57.98
2018-11-12T03:35:21.400Z,58.80
2018-11-12T03:37:51.442Z,58.09
2018-11-12T03:40:22.609Z,58.61
2018-11-12T03:42:52.508Z,58.25
2018-11-12T03:45:22.965Z,58.35
2018-11-12T03:47:52.302Z,58.33
2018-11-12T03:50:22.720Z,58.04
2018-11-12T03:52:51.950Z,58.54
2018-11-12T03:55:22.318Z,58.50
2018-11-12T03:57:51.643Z,58.80
2018-11-12T04:00:22.985Z,58.89
2018-11-12T04:02:52.169Z,58.36
2018-11-12T04:05:21.485Z,58.71
2018-11-12T04:07:50.769Z,58.91
2018-11-12T04:10:21.201Z,58.07
2018-11-12T04:12:50.781Z,58.95
2018-11-12T04:15:22.274Z,58.66
2018-11-12T04:17:51.516Z,58.62
2018-11-12T04:20:21.853Z,58.13
2018-11-12T04:22:56.564Z,58.81
2018-11-12T04:25:25.981Z,58.55
2018-11-12T04:27:55.326Z,58.50
2018-11-12T04:30:24.849Z,58.07
2018-11-12T04:32:54.216Z,58.20
2018-11-12T04:35:23.550Z,58.75
2018-11-12T04:37:52.935Z,58.06
2018-11-12T04:40:22.234Z,58.82
2018-11-12T04:42:51.722Z,58.79
2018-11-12T04:45:22.286Z,58.89
2018-11-12T04:47:52.373Z,58.80
2018-11-12T04:50:22.796Z,58.71
2018-11-12T04:52:52.307Z,58.35
2018-11-12T04:55:22.400Z,58.43
2018-11-12T04:57:51.680Z,58.78
2018-11-12T05:00:28.196Z,58.79
2018-11-12T05:02:57.702Z,58.48
2018-11-12T05:05:28.232Z,58.69
2018-11-12T05:07:57.589Z,58.12
2018-11-12T05:10:27.651Z,58.35
2018-11-12T05:12:57.051Z,58.79
2018-11-12T05:15:26.733Z,58.17
2018-11-12T05:17:55.961Z,58.09
2018-11-12T05:20:26.488Z,58.26
2018-11-12T05:22:56.053Z,58.52
2018-11-12T05:25:25.380Z,58.71
2018-11-12T05:27:55.212Z,58.25
2018-11-12T05:30:26.678Z,58.35
2018-11-12T05:32:56.385Z,58.79
2018-11-12T05:35:26.973Z,58.78
2018-11-12T05:37:56.562Z,58.14
2018-11-12T05:40:26.830Z,58.18
2018-11-12T05:42:56.306Z,58.30
2018-11-12T05:45:27.581Z,58.24
2018-11-12T05:47:57.011Z,58.19
2018-11-12T05:50:32.460Z,58.78
2018-11-12T05:53:04.218Z,58.02
2018-11-12T05:55:34.261Z,58.39
2018-11-12T05:58:03.724Z,58.15
2018-11-12T06:00:34.515Z,58.11
2018-11-12T06:03:03.863Z,58.34
2018-11-12T06:05:33.765Z,58.79
2018-11-12T06:08:03.645Z,58.15
2018-11-12T06:10:33.801Z,58.30
2018-11-12T06:13:03.050Z,58.11
2018-11-12T06:15:32.455Z,58.06
2018-11-12T06:18:01.726Z,58.62
2018-11-12T06:20:32.412Z,58.05
2018-11-12T06:23:02.047Z,58.35
2018-11-12T06:25:34.905Z,58.24
2018-11-12T06:28:04.369Z,59.07
2018-11-12T06:30:35.577Z,59.04
2018-11-12T06:33:05.207Z,59.46
2018-11-12T06:35:34.827Z,59.28
2018-11-12T06:38:04.277Z,59.41
2018-11-12T06:40:33.753Z,58.79
2018-11-12T06:43:03.047Z,59.27
2018-11-12T06:45:32.251Z,58.45
2018-11-12T06:48:01.721Z,58.64
2018-11-12T06:50:32.259Z,59.00
2018-11-12T06:53:03.588Z,58.98
2018-11-12T06:55:32.801Z,58.52
2018-11-12T06:58:02.185Z,58.74
2018-11-12T07:00:34.722Z,58.65
2018-11-12T07:03:04.081Z,58.35
2018-11-12T07:05:33.788Z,59.13
2018-11-12T07:08:03.246Z,58.61
2018-11-12T07:10:32.470Z,58.63
2018-11-12T07:13:01.827Z,58.49
2018-11-12T07:15:31.041Z,58.85
2018-11-12T07:18:00.334Z,58.25
2018-11-12T07:20:29.980Z,58.84
2018-11-12T07:22:59.193Z,58.51
2018-11-12T07:25:29.508Z,58.52
2018-11-12T07:27:58.906Z,58.95
2018-11-12T07:30:28.836Z,58.96
2018-11-12T07:32:58.941Z,59.06
2018-11-12T07:35:28.469Z,58.91
2018-11-12T07:37:58.258Z,58.30
2018-11-12T07:40:27.529Z,58.43
2018-11-12T07:42:56.782Z,58.30
2018-11-12T07:45:28.330Z,58.36
2018-11-12T07:47:58.429Z,58.12
2018-11-12T07:50:29.166Z,58.89
2018-11-12T07:52:58.402Z,58.20
2018-11-12T07:55:28.494Z,58.38
2018-11-12T07:57:59.375Z,58.08
2018-11-12T08:00:32.053Z,58.28
2018-11-12T08:03:06.664Z,58.04
2018-11-12T08:05:36.341Z,58.83
2018-11-12T08:08:06.118Z,58.18
2018-11-12T08:10:35.364Z,58.08
2018-11-12T08:13:04.669Z,58.00
2018-11-12T08:15:34.001Z,58.79
2018-11-12T08:18:03.366Z,58.59
2018-11-12T08:20:32.677Z,58.26
2018-11-12T08:23:02.068Z,58.74
2018-11-12T08:25:31.557Z,58.16
2018-11-12T08:28:01.072Z,58.14
2018-11-12T08:30:30.668Z,58.32
2018-11-12T08:33:00.934Z,58.17
2018-11-12T08:35:30.205Z,58.07
2018-11-12T08:37:59.713Z,58.85
2018-11-12T08:40:29.875Z,58.33
2018-11-12T08:42:59.116Z,58.24
2018-11-12T08:45:28.345Z,58.25
2018-11-12T08:47:57.994Z,57.97
2018-11-12T08:50:28.071Z,58.78
2018-11-12T08:52:58.019Z,57.89
2018-11-12T08:55:29.666Z,58.55
2018-11-12T08:58:00.569Z,58.74
2018-11-12T09:00:30.101Z,58.62
2018-11-12T09:02:59.475Z,58.83
2018-11-12T09:05:29.709Z,58.68
2018-11-12T09:08:00.327Z,58.21
2018-11-12T09:10:30.902Z,58.36
2018-11-12T09:13:00.173Z,57.95
2018-11-12T09:15:29.524Z,58.01
2018-11-12T09:17:59.108Z,57.90
2018-11-12T09:20:29.085Z,58.12
2018-11-12T09:22:58.954Z,57.99
2018-11-12T09:25:29.426Z,58.32
2018-11-12T09:27:58.812Z,58.04
2018-11-12T09:30:29.167Z,58.20
2018-11-12T09:32:58.539Z,58.50
2018-11-12T09:35:29.273Z,58.27
2018-11-12T09:37:59.465Z,58.53
2018-11-12T09:40:36.756Z,58.04
2018-11-12T09:43:06.404Z,57.79
2018-11-12T09:45:35.917Z,58.21
2018-11-12T09:48:05.468Z,58.18
2018-11-12T09:50:34.804Z,57.87
2018-11-12T09:53:04.433Z,58.15
2018-11-12T09:55:34.399Z,58.02
2018-11-12T09:58:04.965Z,57.83
2018-11-12T10:00:34.579Z,58.67
2018-11-12T10:03:05.486Z,58.47
2018-11-12T10:05:35.781Z,58.64
2018-11-12T10:08:12.272Z,58.54
2018-11-12T10:10:52.050Z,57.96
2018-11-12T10:13:24.399Z,57.83
2018-11-12T10:15:54.226Z,58.37
2018-11-12T10:18:20.986Z,57.85
2018-11-12T10:20:50.281Z,57.82
2018-11-12T10:23:20.182Z,58.66
2018-11-12T10:25:49.613Z,58.15
2018-11-12T10:28:20.242Z,58.50
2018-11-12T10:30:49.652Z,58.13
2018-11-12T10:33:19.257Z,58.10
2018-11-12T10:35:48.525Z,57.74
2018-11-12T10:38:17.845Z,57.92
2018-11-12T10:40:47.303Z,58.45
2018-11-12T10:43:16.496Z,58.11
2018-11-12T10:45:45.873Z,57.58
2018-11-12T10:48:15.146Z,57.91
2018-11-12T10:50:44.369Z,58.53
2018-11-12T10:53:13.665Z,58.07
2018-11-12T10:55:43.083Z,58.30
2018-11-12T10:58:12.147Z,58.66
2018-11-12T11:00:46.679Z,57.73
2018-11-12T11:03:21.874Z,58.50
2018-11-12T11:05:52.634Z,58.38
2018-11-12T11:08:21.923Z,57.80
2018-11-12T11:10:51.225Z,58.38
2018-11-12T11:13:20.505Z,58.52
2018-11-12T11:15:49.849Z,57.85
2018-11-12T11:18:19.145Z,58.55
2018-11-12T11:20:48.434Z,57.94
2018-11-12T11:23:17.644Z,58.04
2018-11-12T11:25:47.053Z,57.92
2018-11-12T11:28:16.537Z,58.59
2018-11-12T11:30:45.776Z,58.66
2018-11-12T11:33:15.054Z,57.76
2018-11-12T11:35:44.355Z,57.79
2018-11-12T11:38:13.809Z,57.76
2018-11-12T11:40:43.211Z,57.84
2018-11-12T11:43:12.559Z,58.56
2018-11-12T11:45:41.890Z,57.90
2018-11-12T11:48:11.316Z,58.52
2018-11-12T11:50:40.591Z,57.82
2018-11-12T11:53:09.855Z,57.58
2018-11-12T11:55:44.972Z,57.77
2018-11-12T11:58:14.387Z,58.17
2018-11-12T12:00:43.636Z,57.84
2018-11-12T12:03:12.930Z,58.50
2018-11-12T12:05:42.215Z,58.57
2018-11-12T12:08:11.511Z,58.29
2018-11-12T12:10:40.916Z,58.24
2018-11-12T12:13:10.637Z,57.92
2018-11-12T12:15:39.837Z,57.82
2018-11-12T12:18:09.085Z,58.56
2018-11-12T12:20:39.638Z,58.10
2018-11-12T12:23:09.065Z,58.44
2018-11-12T12:25:38.425Z,58.17
2018-11-12T12:28:07.783Z,58.57
2018-11-12T12:30:37.162Z,58.11
2018-11-12T12:33:06.470Z,58.42
2018-11-12T12:35:36.009Z,58.11
2018-11-12T12:38:05.430Z,58.36
2018-11-12T12:40:34.824Z,57.88
2018-11-12T12:43:04.683Z,58.55
2018-11-12T12:45:34.130Z,58.31
2018-11-12T12:48:03.388Z,58.04
2018-11-12T12:50:32.875Z,58.01
2018-11-12T12:53:02.104Z,57.83
2018-11-12T12:55:31.476Z,58.70
2018-11-12T12:58:00.895Z,57.83
2018-11-12T13:00:30.183Z,58.43
2018-11-12T13:02:59.508Z,58.65
2018-11-12T13:05:29.025Z,58.07
2018-11-12T13:07:58.810Z,58.65
2018-11-12T13:10:28.033Z,58.26
2018-11-12T13:12:57.446Z,58.16
2018-11-12T13:15:26.805Z,58.53
2018-11-12T13:17:56.099Z,58.54
2018-11-12T13:20:25.851Z,58.15
2018-11-12T13:22:55.262Z,58.22
2018-11-12T13:25:24.721Z,58.24
2018-11-12T13:27:53.984Z,57.87
2018-11-12T13:30:24.924Z,58.40
2018-11-12T13:32:54.281Z,58.63
2018-11-12T13:35:24.980Z,58.27
2018-11-12T13:37:54.458Z,58.12
2018-11-12T13:40:26.031Z,58.69
2018-11-12T13:42:57.020Z,58.42
2018-11-12T13:45:27.134Z,58.67
2018-11-12T13:47:57.439Z,58.08
2018-11-12T13:50:27.742Z,58.20
2018-11-12T13:52:57.938Z,58.17
2018-11-12T13:55:27.304Z,58.73
2018-11-12T13:57:56.727Z,58.75
2018-11-12T14:00:27.518Z,58.89
2018-11-12T14:02:57.291Z,57.90
2018-11-12T14:05:27.354Z,58.77
2018-11-12T14:07:56.665Z,58.37
2018-11-12T14:10:27.744Z,58.45
2018-11-12T14:12:57.932Z,58.78
2018-11-12T14:15:27.422Z,58.14
2018-11-12T14:17:57.241Z,58.25
2018-11-12T14:20:27.057Z,58.11
2018-11-12T14:22:56.235Z,58.44
2018-11-12T14:25:26.114Z,58.17
2018-11-12T14:27:56.520Z,58.26
2018-11-12T14:30:27.425Z,58.00
2018-11-12T14:32:56.711Z,58.18
2018-11-12T14:35:26.335Z,58.42
2018-11-12T14:37:55.535Z,58.57
2018-11-12T14:40:25.147Z,58.01
2018-11-12T14:42:54.454Z,57.96
2018-11-12T14:45:23.836Z,58.29
2018-11-12T14:47:53.153Z,58.15
2018-11-12T14:50:22.570Z,58.44
2018-11-12T14:52:51.789Z,58.29
2018-11-12T14:55:21.051Z,58.41
2018-11-12T14:57:50.279Z,58.37
2018-11-12T15:00:22.099Z,58.08
2018-11-12T15:02:52.673Z,58.82
2018-11-12T15:05:23.491Z,58.08
2018-11-12T15:07:52.896Z,58.39
2018-11-12T15:10:22.177Z,58.68
2018-11-12T15:12:52.099Z,58.80
2018-11-12T15:15:21.330Z,58.73
2018-11-12T15:17:50.570Z,58.77
2018-11-12T15:20:20.534Z,57.98
2018-11-12T15:22:50.489Z,58.08
2018-11-12T15:25:22.368Z,58.87
2018-11-12T15:27:51.726Z,58.12
2018-11-12T15:30:22.269Z,58.68
2018-11-12T15:32:52.649Z,58.87
2018-11-12T15:35:21.957Z,58.51
2018-11-12T15:37:51.702Z,58.02
2018-11-12T15:40:21.145Z,58.74
2018-11-12T15:42:50.536Z,58.22
2018-11-12T15:45:22.141Z,58.32
2018-11-12T15:47:53.450Z,57.92
2018-11-12T15:50:27.517Z,58.31
2018-11-12T15:52:56.781Z,58.65
2018-11-12T15:55:26.265Z,58.09
2018-11-12T15:57:55.700Z,58.69
2018-11-12T16:00:24.773Z,58.11
2018-11-12T16:02:54.058Z,58.77
2018-11-12T16:05:23.394Z,59.05
2018-11-12T16:07:52.595Z,57.96
2018-11-12T16:10:22.317Z,58.46
2018-11-12T16:12:51.588Z,58.41
2018-11-12T16:15:21.684Z,58.86
2018-11-12T16:17:50.985Z,58.23
2018-11-12T16:20:23.551Z,58.75
2018-11-12T16:22:53.171Z,58.82
2018-11-12T16:25:22.937Z,58.11
2018-11-12T16:27:52.262Z,58.56
2018-11-12T16:30:21.597Z,58.78
2018-11-12T16:32:50.962Z,58.09
2018-11-12T16:35:21.829Z,58.11
2018-11-12T16:37:52.154Z,58.32
2018-11-12T16:40:21.568Z,58.81
2018-11-12T16:42:51.165Z,58.39
2018-11-12T16:45:20.389Z,58.75
2018-11-12T16:47:49.793Z,58.32
2018-11-12T16:50:19.392Z,58.64
2018-11-12T16:52:48.672Z,59.08
2018-11-12T16:55:19.430Z,58.86
2018-11-12T16:57:49.473Z,58.26
2018-11-12T17:00:20.071Z,58.50
2018-11-12T17:02:50.510Z,58.21
2018-11-12T17:05:21.084Z,59.03
2018-11-12T17:07:50.473Z,58.43
2018-11-12T17:10:21.043Z,58.32
2018-11-12T17:12:50.964Z,58.64
2018-11-12T17:15:20.338Z,58.88
2018-11-12T17:17:49.968Z,59.76
2018-11-12T17:20:21.068Z,61.29
2018-11-12T17:22:50.493Z,61.77
2018-11-12T17:25:20.090Z,62.78
2018-11-12T17:27:49.553Z,63.32
2018-11-12T17:30:20.608Z,63.87
2018-11-12T17:32:50.561Z,63.37
2018-11-12T17:35:21.075Z,63.42
2018-11-12T17:37:50.366Z,63.44
2018-11-12T17:40:21.890Z,63.36
2018-11-12T17:42:52.016Z,63.46
2018-11-12T17:45:22.730Z,63.60
2018-11-12T17:47:52.973Z,64.24
2018-11-12T17:50:22.347Z,63.69
2018-11-12T17:52:51.775Z,63.35
2018-11-12T17:55:21.262Z,63.42
2018-11-12T17:57:50.475Z,63.68
2018-11-12T18:00:31.966Z,63.19
2018-11-12T18:03:01.248Z,63.11
2018-11-12T18:05:30.477Z,63.68
2018-11-12T18:10:49.134Z,62.82
2018-11-12T18:13:18.511Z,63.29
2018-11-12T18:15:47.831Z,62.49
2018-11-12T18:18:17.166Z,62.58
2018-11-12T18:20:46.436Z,62.41
2018-11-12T18:23:15.847Z,62.47
2018-11-12T18:25:45.142Z,62.76
2018-11-12T18:28:14.513Z,62.74
2018-11-12T18:30:44.056Z,62.93
2018-11-12T18:33:13.166Z,62.55
2018-11-12T18:35:42.384Z,62.45
2018-11-12T18:38:11.718Z,62.63
2018-11-12T18:40:44.283Z,61.88
2018-11-12T18:43:13.507Z,62.62
2018-11-12T18:45:42.905Z,61.95
2018-11-12T18:48:12.360Z,61.87
2018-11-12T18:50:41.668Z,62.00
2018-11-12T18:53:11.002Z,62.04
2018-11-12T18:55:40.405Z,61.40
2018-11-12T18:58:09.778Z,62.15
2018-11-12T19:00:39.584Z,61.65
2018-11-12T19:03:09.014Z,62.19
2018-11-12T19:05:38.238Z,61.92
2018-11-12T19:08:07.442Z,62.13
2018-11-12T19:10:36.703Z,62.06
2018-11-12T19:13:06.332Z,62.22
2018-11-12T19:15:37.025Z,62.04
2018-11-12T19:18:08.507Z,61.87
2018-11-12T19:20:37.808Z,61.35
2018-11-12T19:23:07.326Z,61.68
2018-11-12T19:25:37.153Z,61.60
2018-11-12T19:28:06.464Z,61.21
2018-11-12T19:30:35.869Z,61.23
2018-11-12T19:33:05.744Z,61.81
2018-11-12T19:35:35.164Z,60.94
2018-11-12T19:38:04.784Z,61.15
2018-11-12T19:40:34.395Z,61.62
2018-11-12T19:43:03.810Z,61.06
2018-11-12T19:45:33.359Z,61.54
2018-11-12T19:48:02.593Z,60.84
2018-11-12T19:50:32.250Z,61.56
2018-11-12T19:53:01.913Z,60.91
2018-11-12T19:55:31.293Z,60.85
2018-11-12T19:58:00.903Z,60.76
2018-11-12T20:00:30.738Z,61.49
2018-11-12T20:03:01.390Z,61.47
2018-11-12T20:05:30.718Z,60.66
2018-11-12T20:07:59.980Z,61.10
2018-11-12T20:10:29.448Z,60.49
2018-11-12T20:12:58.758Z,60.55
2018-11-12T20:15:28.173Z,60.67
2018-11-12T20:17:57.783Z,60.38
2018-11-12T20:20:28.906Z,60.89
2018-11-12T20:22:58.417Z,60.35
2018-11-12T20:25:27.783Z,60.30
2018-11-12T20:27:57.981Z,60.90
2018-11-12T20:30:32.179Z,60.37
2018-11-12T20:33:01.612Z,61.20
2018-11-12T20:35:30.993Z,60.59
2018-11-12T20:38:00.363Z,60.97
2018-11-12T20:40:29.726Z,61.08
2018-11-12T20:42:59.059Z,61.21
2018-11-12T20:48:20.862Z,60.37
2018-11-12T20:50:50.231Z,60.91
2018-11-12T20:53:19.504Z,60.93
2018-11-12T20:55:48.963Z,61.50
2018-11-12T20:58:18.282Z,60.78
2018-11-12T21:00:47.822Z,61.30
2018-11-12T21:03:17.041Z,61.37
2018-11-12T21:05:46.441Z,61.60
2018-11-12T21:08:16.702Z,60.79
2018-11-12T21:10:46.092Z,60.90
2018-11-12T21:13:15.448Z,61.44
2018-11-12T21:15:44.665Z,61.24
2018-11-12T21:18:13.987Z,60.90
2018-11-12T21:20:43.869Z,60.87
2018-11-12T21:23:14.122Z,60.54
2018-11-12T21:25:43.516Z,61.45
2018-11-12T21:28:14.003Z,61.48
2018-11-12T21:30:44.074Z,61.57
2018-11-12T21:33:13.789Z,61.34
2018-11-12T21:35:45.916Z,60.67
2018-11-12T21:38:15.569Z,61.32
2018-11-12T21:40:45.286Z,61.33
2018-11-12T21:43:14.758Z,61.05
2018-11-12T21:45:44.092Z,60.70
2018-11-12T21:48:13.463Z,61.02
2018-11-12T21:50:42.826Z,61.00
2018-11-12T21:53:12.208Z,60.51
2018-11-12T21:55:41.545Z,60.83
2018-11-12T21:58:10.761Z,61.02
2018-11-12T22:00:40.186Z,60.37
2018-11-12T22:03:09.457Z,60.64
2018-11-12T22:05:38.785Z,61.01
2018-11-12T22:08:08.145Z,60.40
2018-11-12T22:10:37.458Z,60.41
2018-11-12T22:13:06.708Z,60.96
2018-11-12T22:15:36.158Z,60.35
2018-11-12T22:18:06.182Z,60.26
2018-11-12T22:20:35.618Z,60.79
2018-11-12T22:23:05.543Z,60.85
2018-11-12T22:25:34.808Z,60.88
2018-11-12T22:28:04.055Z,60.16
2018-11-12T22:30:33.362Z,60.91
2018-11-12T22:33:02.673Z,60.42
2018-11-12T22:35:32.146Z,60.99
2018-11-12T22:38:01.729Z,60.16
2018-11-12T22:40:30.969Z,60.53
2018-11-12T22:43:00.213Z,60.99
2018-11-12T22:45:29.628Z,61.00
2018-11-12T22:47:59.128Z,60.31
2018-11-12T22:50:28.483Z,60.58
2018-11-12T22:52:57.866Z,60.78
2018-11-12T22:59:21.301Z,55.86
2018-11-12T23:01:50.962Z,60.66
2018-11-12T23:04:22.075Z,65.34
2018-11-12T23:06:57.777Z,71.74
2018-11-12T23:09:28.539Z,80.02
2018-11-12T23:11:58.679Z,87.17
2018-11-12T23:14:28.996Z,92.04
2018-11-12T23:17:00.758Z,96.29
2018-11-12T23:19:31.123Z,99.71
2018-11-12T23:22:01.518Z,100.00
2018-11-12T23:24:32.068Z,100.00
2018-11-12T23:27:02.754Z,100.00
2018-11-12T23:29:33.820Z,100.00
2018-11-12T23:32:04.009Z,100.00
2018-11-12T23:34:33.629Z,100.00
2018-11-12T23:37:07.504Z,100.00
2018-11-12T23:39:37.195Z,100.00
2018-11-12T23:42:06.895Z,100.00
2018-11-12T23:44:36.717Z,100.00
2018-11-12T23:47:06.531Z,100.00
2018-11-12T23:49:35.982Z,100.00
2018-11-12T23:52:08.985Z,100.00
2018-11-12T23:54:38.812Z,100.00
2018-11-12T23:57:09.525Z,100.00
2018-11-12T23:59:39.021Z,100.00
